Mendoza, Argentina
Current Conditions -  °F | °C
As of 6:00 AM on Saturday 29 Nov 2014 (Local Time) from SAME Reporting Station
Clear Clear  
Wind Chill: 68°   Ceiling: Unl
Heat Index: 68°   Visibility: 6mi
Dew Point: 50°   Wind: 17mph
Humidity: 52%   Direction: 140°SE
Pressure: 29.68"   Gusts: 30mph
Location:  32.89°S, 68.83°W
Report Text: SAME 290900Z 14015G26KT CAVOK 20/10 Q1005
Loading
Personal Weather Stations






























Interactive Weather Map New forecast layout! Learn more

10-Day Weather Forecast

Advertisements
Track Severe Weather on mobile